sensor_id;sensor_type;location;lat;lon;timestamp;P1;durP1;ratioP1;P2;durP2;ratioP2
21492;SDS011;10908;50.690;4.400;2024-03-02T00:00:06;1.90;;;0.20;;
21492;SDS011;10908;50.690;4.400;2024-03-02T00:02:41;0.80;;;0.20;;
21492;SDS011;10908;50.690;4.400;2024-03-02T00:05:09;1.15;;;0.25;;
21492;SDS011;10908;50.690;4.400;2024-03-02T00:07:56;0.80;;;0.20;;
21492;SDS011;10908;50.690;4.400;2024-03-02T00:10:24;0.98;;;0.28;;
21492;SDS011;10908;50.690;4.400;2024-03-02T00:12:54;1.42;;;0.30;;
21492;SDS011;10908;50.690;4.400;2024-03-02T00:17:54;2.85;;;0.30;;
21492;SDS011;10908;50.690;4.400;2024-03-02T00:20:23;1.30;;;0.63;;
21492;SDS011;10908;50.690;4.400;2024-03-02T00:22:52;2.53;;;0.22;;
21492;SDS011;10908;50.690;4.400;2024-03-02T00:25:24;0.88;;;0.20;;
21492;SDS011;10908;50.690;4.400;2024-03-02T00:27:49;0.57;;;0.17;;
21492;SDS011;10908;50.690;4.400;2024-03-02T00:30:31;2.38;;;0.30;;
21492;SDS011;10908;50.690;4.400;2024-03-02T00:33:19;1.08;;;0.20;;
21492;SDS011;10908;50.690;4.400;2024-03-02T00:35:46;0.75;;;0.20;;
21492;SDS011;10908;50.690;4.400;2024-03-02T00:38:12;2.03;;;0.25;;
21492;SDS011;10908;50.690;4.400;2024-03-02T00:40:40;1.40;;;0.20;;
21492;SDS011;10908;50.690;4.400;2024-03-02T00:43:09;0.98;;;0.10;;
21492;SDS011;10908;50.690;4.400;2024-03-02T00:45:49;1.75;;;0.25;;
21492;SDS011;10908;50.690;4.400;2024-03-02T00:48:17;0.60;;;0.20;;
21492;SDS011;10908;50.690;4.400;2024-03-02T00:50:43;0.47;;;0.10;;
21492;SDS011;10908;50.690;4.400;2024-03-02T00:53:12;1.52;;;0.40;;
21492;SDS011;10908;50.690;4.400;2024-03-02T00:55:38;0.95;;;0.20;;
21492;SDS011;10908;50.690;4.400;2024-03-02T00:58:09;0.95;;;0.20;;
21492;SDS011;10908;50.690;4.400;2024-03-02T01:00:34;0.30;;;0.10;;
21492;SDS011;10908;50.690;4.400;2024-03-02T01:03:00;1.73;;;0.30;;
21492;SDS011;10908;50.690;4.400;2024-03-02T01:05:26;1.42;;;0.25;;
21492;SDS011;10908;50.690;4.400;2024-03-02T01:07:51;1.67;;;0.30;;
21492;SDS011;10908;50.690;4.400;2024-03-02T01:10:17;1.13;;;0.20;;
21492;SDS011;10908;50.690;4.400;2024-03-02T01:12:42;3.10;;;0.30;;
21492;SDS011;10908;50.690;4.400;2024-03-02T01:15:08;1.13;;;0.20;;
21492;SDS011;10908;50.690;4.400;2024-03-02T01:17:34;1.00;;;0.20;;
21492;SDS011;10908;50.690;4.400;2024-03-02T01:20:00;1.70;;;0.20;;
21492;SDS011;10908;50.690;4.400;2024-03-02T01:22:25;0.90;;;0.20;;
21492;SDS011;10908;50.690;4.400;2024-03-02T01:24:51;1.55;;;0.30;;
21492;SDS011;10908;50.690;4.400;2024-03-02T01:27:16;2.78;;;0.30;;
21492;SDS011;10908;50.690;4.400;2024-03-02T01:29:42;1.73;;;0.20;;
21492;SDS011;10908;50.690;4.400;2024-03-02T01:32:08;0.85;;;0.20;;
21492;SDS011;10908;50.690;4.400;2024-03-02T01:34:33;2.92;;;0.40;;
21492;SDS011;10908;50.690;4.400;2024-03-02T01:36:59;1.38;;;0.20;;
21492;SDS011;10908;50.690;4.400;2024-03-02T01:39:24;3.88;;;0.52;;
21492;SDS011;10908;50.690;4.400;2024-03-02T01:41:50;2.88;;;0.30;;
21492;SDS011;10908;50.690;4.400;2024-03-02T01:44:16;2.42;;;0.20;;
21492;SDS011;10908;50.690;4.400;2024-03-02T01:46:42;1.05;;;0.20;;
21492;SDS011;10908;50.690;4.400;2024-03-02T01:49:07;2.83;;;0.32;;
21492;SDS011;10908;50.690;4.400;2024-03-02T01:51:33;2.67;;;0.32;;
21492;SDS011;10908;50.690;4.400;2024-03-02T01:53:59;2.75;;;0.30;;
21492;SDS011;10908;50.690;4.400;2024-03-02T01:56:24;2.28;;;0.30;;
21492;SDS011;10908;50.690;4.400;2024-03-02T01:58:50;4.45;;;0.55;;
21492;SDS011;10908;50.690;4.400;2024-03-02T02:01:16;2.13;;;0.35;;
21492;SDS011;10908;50.690;4.400;2024-03-02T02:03:42;3.30;;;0.32;;
21492;SDS011;10908;50.690;4.400;2024-03-02T02:06:09;4.38;;;0.50;;
21492;SDS011;10908;50.690;4.400;2024-03-02T02:08:36;4.43;;;0.60;;
21492;SDS011;10908;50.690;4.400;2024-03-02T02:11:02;2.45;;;0.30;;
21492;SDS011;10908;50.690;4.400;2024-03-02T02:13:28;4.90;;;0.50;;
21492;SDS011;10908;50.690;4.400;2024-03-02T02:15:53;3.30;;;0.40;;
21492;SDS011;10908;50.690;4.400;2024-03-02T02:18:19;4.65;;;0.40;;
21492;SDS011;10908;50.690;4.400;2024-03-02T02:20:45;2.72;;;0.30;;
21492;SDS011;10908;50.690;4.400;2024-03-02T02:23:10;4.65;;;0.50;;
21492;SDS011;10908;50.690;4.400;2024-03-02T02:25:38;2.33;;;0.30;;
21492;SDS011;10908;50.690;4.400;2024-03-02T02:28:04;3.30;;;0.38;;
21492;SDS011;10908;50.690;4.400;2024-03-02T02:30:30;2.75;;;0.40;;
21492;SDS011;10908;50.690;4.400;2024-03-02T02:32:57;4.78;;;0.40;;
21492;SDS011;10908;50.690;4.400;2024-03-02T02:35:23;4.32;;;0.40;;
21492;SDS011;10908;50.690;4.400;2024-03-02T02:37:49;2.53;;;0.50;;
21492;SDS011;10908;50.690;4.400;2024-03-02T02:40:16;3.65;;;0.50;;
21492;SDS011;10908;50.690;4.400;2024-03-02T02:42:43;1.85;;;0.47;;
21492;SDS011;10908;50.690;4.400;2024-03-02T02:45:09;2.90;;;0.40;;
21492;SDS011;10908;50.690;4.400;2024-03-02T02:47:36;2.60;;;0.40;;
21492;SDS011;10908;50.690;4.400;2024-03-02T02:50:06;2.25;;;0.40;;
21492;SDS011;10908;50.690;4.400;2024-03-02T02:52:33;2.53;;;0.40;;
21492;SDS011;10908;50.690;4.400;2024-03-02T02:55:01;4.60;;;0.52;;
21492;SDS011;10908;50.690;4.400;2024-03-02T02:57:31;2.90;;;0.45;;
21492;SDS011;10908;50.690;4.400;2024-03-02T03:00:01;1.92;;;0.40;;
21492;SDS011;10908;50.690;4.400;2024-03-02T03:02:35;2.60;;;0.50;;
21492;SDS011;10908;50.690;4.400;2024-03-02T03:05:01;5.43;;;0.57;;
21492;SDS011;10908;50.690;4.400;2024-03-02T03:07:27;3.70;;;0.40;;
21492;SDS011;10908;50.690;4.400;2024-03-02T03:09:52;4.88;;;0.60;;
21492;SDS011;10908;50.690;4.400;2024-03-02T03:12:18;2.42;;;0.47;;
21492;SDS011;10908;50.690;4.400;2024-03-02T03:14:43;3.47;;;0.50;;
21492;SDS011;10908;50.690;4.400;2024-03-02T03:17:09;3.33;;;0.50;;
21492;SDS011;10908;50.690;4.400;2024-03-02T03:19:35;4.35;;;0.55;;
21492;SDS011;10908;50.690;4.400;2024-03-02T03:22:01;2.83;;;0.52;;
21492;SDS011;10908;50.690;4.400;2024-03-02T03:24:26;2.72;;;0.57;;
21492;SDS011;10908;50.690;4.400;2024-03-02T03:26:52;4.95;;;0.40;;
21492;SDS011;10908;50.690;4.400;2024-03-02T03:29:18;1.95;;;0.50;;
21492;SDS011;10908;50.690;4.400;2024-03-02T03:31:43;2.08;;;0.45;;
21492;SDS011;10908;50.690;4.400;2024-03-02T03:34:09;3.65;;;0.50;;
21492;SDS011;10908;50.690;4.400;2024-03-02T03:36:34;6.00;;;0.50;;
21492;SDS011;10908;50.690;4.400;2024-03-02T03:39:00;4.28;;;0.60;;
21492;SDS011;10908;50.690;4.400;2024-03-02T03:41:27;4.10;;;0.60;;
21492;SDS011;10908;50.690;4.400;2024-03-02T03:43:52;3.72;;;0.55;;
21492;SDS011;10908;50.690;4.400;2024-03-02T03:46:18;4.82;;;0.73;;
21492;SDS011;10908;50.690;4.400;2024-03-02T03:48:43;3.58;;;0.55;;
21492;SDS011;10908;50.690;4.400;2024-03-02T03:51:09;2.17;;;0.40;;
21492;SDS011;10908;50.690;4.400;2024-03-02T03:53:35;4.15;;;0.60;;
21492;SDS011;10908;50.690;4.400;2024-03-02T03:56:00;3.88;;;0.70;;
21492;SDS011;10908;50.690;4.400;2024-03-02T03:58:26;3.75;;;0.63;;
21492;SDS011;10908;50.690;4.400;2024-03-02T04:00:51;2.35;;;0.50;;
21492;SDS011;10908;50.690;4.400;2024-03-02T04:03:17;4.35;;;0.60;;
21492;SDS011;10908;50.690;4.400;2024-03-02T04:05:43;5.10;;;0.75;;
21492;SDS011;10908;50.690;4.400;2024-03-02T04:08:08;4.50;;;0.77;;
21492;SDS011;10908;50.690;4.400;2024-03-02T04:10:34;3.55;;;0.70;;
21492;SDS011;10908;50.690;4.400;2024-03-02T04:13:00;6.93;;;0.60;;
21492;SDS011;10908;50.690;4.400;2024-03-02T04:15:25;5.10;;;0.63;;
21492;SDS011;10908;50.690;4.400;2024-03-02T04:17:51;2.83;;;0.50;;
21492;SDS011;10908;50.690;4.400;2024-03-02T04:20:16;4.38;;;0.80;;
21492;SDS011;10908;50.690;4.400;2024-03-02T04:22:42;2.05;;;0.60;;
21492;SDS011;10908;50.690;4.400;2024-03-02T04:25:08;4.88;;;0.55;;
21492;SDS011;10908;50.690;4.400;2024-03-02T04:27:34;5.03;;;0.50;;
21492;SDS011;10908;50.690;4.400;2024-03-02T04:30:00;3.00;;;0.70;;
21492;SDS011;10908;50.690;4.400;2024-03-02T04:32:26;3.58;;;0.60;;
21492;SDS011;10908;50.690;4.400;2024-03-02T04:34:52;4.18;;;0.80;;
21492;SDS011;10908;50.690;4.400;2024-03-02T04:37:18;3.92;;;0.50;;
21492;SDS011;10908;50.690;4.400;2024-03-02T04:39:44;3.83;;;0.57;;
21492;SDS011;10908;50.690;4.400;2024-03-02T04:42:09;4.88;;;0.70;;
21492;SDS011;10908;50.690;4.400;2024-03-02T04:44:35;5.75;;;1.15;;
21492;SDS011;10908;50.690;4.400;2024-03-02T04:47:01;3.67;;;0.60;;
21492;SDS011;10908;50.690;4.400;2024-03-02T04:49:28;4.28;;;0.70;;
21492;SDS011;10908;50.690;4.400;2024-03-02T04:51:53;3.42;;;0.50;;
21492;SDS011;10908;50.690;4.400;2024-03-02T04:54:19;6.30;;;0.70;;
21492;SDS011;10908;50.690;4.400;2024-03-02T04:56:44;3.78;;;0.43;;
21492;SDS011;10908;50.690;4.400;2024-03-02T04:59:14;3.47;;;0.50;;
21492;SDS011;10908;50.690;4.400;2024-03-02T05:01:43;3.75;;;0.50;;
21492;SDS011;10908;50.690;4.400;2024-03-02T05:04:09;5.82;;;0.50;;
21492;SDS011;10908;50.690;4.400;2024-03-02T05:06:37;4.20;;;0.47;;
21492;SDS011;10908;50.690;4.400;2024-03-02T05:09:04;2.90;;;0.38;;
21492;SDS011;10908;50.690;4.400;2024-03-02T05:11:30;3.00;;;0.52;;
21492;SDS011;10908;50.690;4.400;2024-03-02T05:14:05;4.43;;;0.60;;
21492;SDS011;10908;50.690;4.400;2024-03-02T05:16:34;6.25;;;0.95;;
21492;SDS011;10908;50.690;4.400;2024-03-02T05:19:00;6.57;;;0.80;;
21492;SDS011;10908;50.690;4.400;2024-03-02T05:21:26;6.07;;;0.60;;
21492;SDS011;10908;50.690;4.400;2024-03-02T05:23:52;3.88;;;0.60;;
21492;SDS011;10908;50.690;4.400;2024-03-02T05:26:17;5.90;;;0.70;;
21492;SDS011;10908;50.690;4.400;2024-03-02T05:28:43;6.35;;;0.80;;
21492;SDS011;10908;50.690;4.400;2024-03-02T05:31:10;5.82;;;0.88;;
21492;SDS011;10908;50.690;4.400;2024-03-02T05:33:37;5.88;;;0.70;;
21492;SDS011;10908;50.690;4.400;2024-03-02T05:36:03;4.90;;;0.95;;
21492;SDS011;10908;50.690;4.400;2024-03-02T05:38:30;3.33;;;0.63;;
21492;SDS011;10908;50.690;4.400;2024-03-02T05:40:56;1.75;;;0.47;;
21492;SDS011;10908;50.690;4.400;2024-03-02T05:43:21;4.03;;;0.60;;
21492;SDS011;10908;50.690;4.400;2024-03-02T05:45:47;5.20;;;0.77;;
21492;SDS011;10908;50.690;4.400;2024-03-02T05:48:12;12.18;;;0.90;;
21492;SDS011;10908;50.690;4.400;2024-03-02T05:50:38;5.78;;;0.88;;
21492;SDS011;10908;50.690;4.400;2024-03-02T05:53:03;6.30;;;0.90;;
21492;SDS011;10908;50.690;4.400;2024-03-02T05:55:29;8.18;;;0.90;;
21492;SDS011;10908;50.690;4.400;2024-03-02T05:57:56;9.73;;;1.10;;
21492;SDS011;10908;50.690;4.400;2024-03-02T06:00:56;5.00;;;0.90;;
21492;SDS011;10908;50.690;4.400;2024-03-02T06:03:22;6.38;;;0.90;;
21492;SDS011;10908;50.690;4.400;2024-03-02T06:05:47;5.30;;;1.10;;
21492;SDS011;10908;50.690;4.400;2024-03-02T06:08:14;3.95;;;0.90;;
21492;SDS011;10908;50.690;4.400;2024-03-02T06:10:40;7.40;;;1.17;;
21492;SDS011;10908;50.690;4.400;2024-03-02T06:13:05;8.75;;;1.30;;
21492;SDS011;10908;50.690;4.400;2024-03-02T06:15:31;6.95;;;1.27;;
21492;SDS011;10908;50.690;4.400;2024-03-02T06:17:57;7.68;;;1.45;;
21492;SDS011;10908;50.690;4.400;2024-03-02T06:20:23;6.20;;;1.23;;
21492;SDS011;10908;50.690;4.400;2024-03-02T06:22:48;4.80;;;1.33;;
21492;SDS011;10908;50.690;4.400;2024-03-02T06:25:14;6.32;;;1.02;;
21492;SDS011;10908;50.690;4.400;2024-03-02T06:27:40;6.90;;;0.70;;
21492;SDS011;10908;50.690;4.400;2024-03-02T06:30:05;7.18;;;1.10;;
21492;SDS011;10908;50.690;4.400;2024-03-02T06:32:31;7.85;;;1.00;;
21492;SDS011;10908;50.690;4.400;2024-03-02T06:34:57;7.45;;;0.82;;
21492;SDS011;10908;50.690;4.400;2024-03-02T06:37:22;5.18;;;0.60;;
21492;SDS011;10908;50.690;4.400;2024-03-02T06:39:48;6.70;;;0.60;;
21492;SDS011;10908;50.690;4.400;2024-03-02T06:42:13;6.10;;;0.70;;
21492;SDS011;10908;50.690;4.400;2024-03-02T06:44:39;5.20;;;0.65;;
21492;SDS011;10908;50.690;4.400;2024-03-02T06:47:05;6.10;;;0.70;;
21492;SDS011;10908;50.690;4.400;2024-03-02T06:49:31;5.65;;;0.75;;
21492;SDS011;10908;50.690;4.400;2024-03-02T06:51:56;4.05;;;0.80;;
21492;SDS011;10908;50.690;4.400;2024-03-02T06:54:22;4.55;;;0.70;;
21492;SDS011;10908;50.690;4.400;2024-03-02T06:56:47;9.00;;;0.90;;
21492;SDS011;10908;50.690;4.400;2024-03-02T06:59:13;5.13;;;0.95;;
21492;SDS011;10908;50.690;4.400;2024-03-02T07:01:38;5.95;;;0.90;;
21492;SDS011;10908;50.690;4.400;2024-03-02T07:04:04;7.55;;;1.10;;
21492;SDS011;10908;50.690;4.400;2024-03-02T07:06:31;4.65;;;0.80;;
21492;SDS011;10908;50.690;4.400;2024-03-02T07:08:57;6.40;;;0.70;;
21492;SDS011;10908;50.690;4.400;2024-03-02T07:11:22;7.00;;;0.90;;
21492;SDS011;10908;50.690;4.400;2024-03-02T07:13:48;7.88;;;0.88;;
21492;SDS011;10908;50.690;4.400;2024-03-02T07:16:14;3.80;;;0.70;;
21492;SDS011;10908;50.690;4.400;2024-03-02T07:18:57;5.20;;;0.70;;
21492;SDS011;10908;50.690;4.400;2024-03-02T07:21:24;6.15;;;0.88;;
21492;SDS011;10908;50.690;4.400;2024-03-02T07:23:49;4.72;;;0.80;;
21492;SDS011;10908;50.690;4.400;2024-03-02T07:26:16;5.57;;;0.70;;
21492;SDS011;10908;50.690;4.400;2024-03-02T07:28:43;6.03;;;1.02;;
21492;SDS011;10908;50.690;4.400;2024-03-02T07:31:09;11.93;;;0.80;;
21492;SDS011;10908;50.690;4.400;2024-03-02T07:33:35;9.02;;;1.10;;
21492;SDS011;10908;50.690;4.400;2024-03-02T07:36:00;7.90;;;1.02;;
21492;SDS011;10908;50.690;4.400;2024-03-02T07:38:27;4.57;;;1.00;;
21492;SDS011;10908;50.690;4.400;2024-03-02T07:40:53;10.18;;;0.93;;
21492;SDS011;10908;50.690;4.400;2024-03-02T07:43:19;4.97;;;0.70;;
21492;SDS011;10908;50.690;4.400;2024-03-02T07:45:45;6.72;;;0.90;;
21492;SDS011;10908;50.690;4.400;2024-03-02T07:48:12;5.22;;;1.00;;
21492;SDS011;10908;50.690;4.400;2024-03-02T07:50:37;6.05;;;0.98;;
21492;SDS011;10908;50.690;4.400;2024-03-02T07:53:04;5.00;;;0.85;;
21492;SDS011;10908;50.690;4.400;2024-03-02T07:55:30;11.50;;;1.13;;
21492;SDS011;10908;50.690;4.400;2024-03-02T07:57:56;6.00;;;1.05;;
21492;SDS011;10908;50.690;4.400;2024-03-02T08:00:22;5.93;;;0.93;;
21492;SDS011;10908;50.690;4.400;2024-03-02T08:02:48;7.38;;;1.08;;
21492;SDS011;10908;50.690;4.400;2024-03-02T08:05:17;4.95;;;0.90;;
21492;SDS011;10908;50.690;4.400;2024-03-02T08:07:46;5.30;;;1.05;;
21492;SDS011;10908;50.690;4.400;2024-03-02T08:10:12;9.23;;;1.30;;
21492;SDS011;10908;50.690;4.400;2024-03-02T08:12:38;10.43;;;1.58;;
21492;SDS011;10908;50.690;4.400;2024-03-02T08:15:04;5.47;;;1.10;;
21492;SDS011;10908;50.690;4.400;2024-03-02T08:17:30;9.82;;;1.00;;
21492;SDS011;10908;50.690;4.400;2024-03-02T08:19:56;9.63;;;1.30;;
21492;SDS011;10908;50.690;4.400;2024-03-02T08:22:23;5.95;;;0.95;;
21492;SDS011;10908;50.690;4.400;2024-03-02T08:24:50;5.25;;;0.98;;
21492;SDS011;10908;50.690;4.400;2024-03-02T08:27:16;8.77;;;1.10;;
21492;SDS011;10908;50.690;4.400;2024-03-02T08:29:42;6.90;;;0.90;;
21492;SDS011;10908;50.690;4.400;2024-03-02T08:32:07;6.10;;;1.23;;
21492;SDS011;10908;50.690;4.400;2024-03-02T08:34:33;6.03;;;1.00;;
21492;SDS011;10908;50.690;4.400;2024-03-02T08:37:00;9.52;;;1.17;;
21492;SDS011;10908;50.690;4.400;2024-03-02T08:39:27;9.00;;;1.20;;
21492;SDS011;10908;50.690;4.400;2024-03-02T08:41:52;4.60;;;0.70;;
21492;SDS011;10908;50.690;4.400;2024-03-02T08:44:18;10.43;;;1.10;;
21492;SDS011;10908;50.690;4.400;2024-03-02T08:46:44;7.25;;;0.82;;
21492;SDS011;10908;50.690;4.400;2024-03-02T08:49:10;9.38;;;1.15;;
21492;SDS011;10908;50.690;4.400;2024-03-02T08:51:36;11.68;;;1.08;;
21492;SDS011;10908;50.690;4.400;2024-03-02T08:54:01;8.95;;;1.17;;
21492;SDS011;10908;50.690;4.400;2024-03-02T08:56:28;6.20;;;1.10;;
21492;SDS011;10908;50.690;4.400;2024-03-02T08:58:55;9.45;;;0.95;;
21492;SDS011;10908;50.690;4.400;2024-03-02T09:01:21;8.30;;;1.42;;
21492;SDS011;10908;50.690;4.400;2024-03-02T09:03:47;5.07;;;1.00;;
21492;SDS011;10908;50.690;4.400;2024-03-02T09:06:14;9.10;;;1.20;;
21492;SDS011;10908;50.690;4.400;2024-03-02T09:08:41;11.93;;;1.25;;
21492;SDS011;10908;50.690;4.400;2024-03-02T09:11:08;6.63;;;1.02;;
21492;SDS011;10908;50.690;4.400;2024-03-02T09:13:34;6.38;;;0.73;;
21492;SDS011;10908;50.690;4.400;2024-03-02T09:16:00;7.60;;;0.90;;
21492;SDS011;10908;50.690;4.400;2024-03-02T09:18:26;8.18;;;0.70;;
21492;SDS011;10908;50.690;4.400;2024-03-02T09:20:52;7.15;;;1.10;;
21492;SDS011;10908;50.690;4.400;2024-03-02T09:23:17;4.95;;;0.70;;
21492;SDS011;10908;50.690;4.400;2024-03-02T09:25:43;5.45;;;0.77;;
21492;SDS011;10908;50.690;4.400;2024-03-02T09:28:09;8.20;;;1.08;;
21492;SDS011;10908;50.690;4.400;2024-03-02T09:30:35;7.60;;;1.25;;
21492;SDS011;10908;50.690;4.400;2024-03-02T09:33:00;5.25;;;1.00;;
21492;SDS011;10908;50.690;4.400;2024-03-02T09:35:26;7.43;;;0.70;;
21492;SDS011;10908;50.690;4.400;2024-03-02T09:37:52;8.40;;;1.00;;
21492;SDS011;10908;50.690;4.400;2024-03-02T09:40:17;4.72;;;1.00;;
21492;SDS011;10908;50.690;4.400;2024-03-02T09:42:47;6.93;;;1.13;;
21492;SDS011;10908;50.690;4.400;2024-03-02T09:45:18;7.72;;;0.98;;
21492;SDS011;10908;50.690;4.400;2024-03-02T09:47:49;7.93;;;0.88;;
21492;SDS011;10908;50.690;4.400;2024-03-02T09:50:14;8.82;;;0.98;;
21492;SDS011;10908;50.690;4.400;2024-03-02T09:52:42;4.50;;;0.75;;
21492;SDS011;10908;50.690;4.400;2024-03-02T09:55:08;6.38;;;0.88;;
21492;SDS011;10908;50.690;4.400;2024-03-02T09:57:34;8.32;;;0.90;;
21492;SDS011;10908;50.690;4.400;2024-03-02T10:00:00;4.95;;;0.70;;
21492;SDS011;10908;50.690;4.400;2024-03-02T10:02:25;4.90;;;0.68;;
21492;SDS011;10908;50.690;4.400;2024-03-02T10:04:51;8.27;;;0.80;;
21492;SDS011;10908;50.690;4.400;2024-03-02T10:07:17;6.63;;;1.05;;
21492;SDS011;10908;50.690;4.400;2024-03-02T10:09:45;6.70;;;0.93;;
21492;SDS011;10908;50.690;4.400;2024-03-02T10:12:12;6.07;;;0.93;;
21492;SDS011;10908;50.690;4.400;2024-03-02T10:14:39;6.75;;;0.90;;
21492;SDS011;10908;50.690;4.400;2024-03-02T10:17:06;8.88;;;1.10;;
21492;SDS011;10908;50.690;4.400;2024-03-02T10:19:33;6.45;;;0.93;;
21492;SDS011;10908;50.690;4.400;2024-03-02T10:22:00;7.40;;;0.80;;
21492;SDS011;10908;50.690;4.400;2024-03-02T10:24:27;5.15;;;0.90;;
21492;SDS011;10908;50.690;4.400;2024-03-02T10:27:01;6.45;;;1.10;;
21492;SDS011;10908;50.690;4.400;2024-03-02T10:29:29;7.32;;;0.70;;
21492;SDS011;10908;50.690;4.400;2024-03-02T10:31:55;6.45;;;1.08;;
21492;SDS011;10908;50.690;4.400;2024-03-02T10:34:21;5.43;;;0.80;;
21492;SDS011;10908;50.690;4.400;2024-03-02T10:36:47;6.00;;;0.80;;
21492;SDS011;10908;50.690;4.400;2024-03-02T10:39:13;5.45;;;0.80;;
21492;SDS011;10908;50.690;4.400;2024-03-02T10:41:39;7.50;;;1.05;;
21492;SDS011;10908;50.690;4.400;2024-03-02T10:44:06;8.32;;;0.95;;
21492;SDS011;10908;50.690;4.400;2024-03-02T10:46:33;5.43;;;0.82;;
21492;SDS011;10908;50.690;4.400;2024-03-02T10:49:01;6.95;;;0.73;;
21492;SDS011;10908;50.690;4.400;2024-03-02T10:51:29;9.00;;;0.80;;
21492;SDS011;10908;50.690;4.400;2024-03-02T10:53:59;4.95;;;0.77;;
21492;SDS011;10908;50.690;4.400;2024-03-02T10:56:34;9.05;;;0.85;;
21492;SDS011;10908;50.690;4.400;2024-03-02T11:01:43;6.07;;;0.90;;
21492;SDS011;10908;50.690;4.400;2024-03-02T11:04:12;7.18;;;0.82;;
21492;SDS011;10908;50.690;4.400;2024-03-02T11:06:40;4.85;;;0.80;;
21492;SDS011;10908;50.690;4.400;2024-03-02T11:09:13;7.82;;;1.00;;
21492;SDS011;10908;50.690;4.400;2024-03-02T11:11:41;5.05;;;0.80;;
21492;SDS011;10908;50.690;4.400;2024-03-02T11:14:13;7.05;;;1.15;;
21492;SDS011;10908;50.690;4.400;2024-03-02T11:16:41;6.10;;;1.10;;
21492;SDS011;10908;50.690;4.400;2024-03-02T11:19:14;7.95;;;1.00;;
21492;SDS011;10908;50.690;4.400;2024-03-02T11:21:41;6.88;;;0.88;;
21492;SDS011;10908;50.690;4.400;2024-03-02T11:26:49;8.82;;;1.20;;
21492;SDS011;10908;50.690;4.400;2024-03-02T11:32:22;6.57;;;0.70;;
21492;SDS011;10908;50.690;4.400;2024-03-02T11:34:50;4.78;;;0.70;;
21492;SDS011;10908;50.690;4.400;2024-03-02T11:37:17;8.25;;;0.90;;
21492;SDS011;10908;50.690;4.400;2024-03-02T11:39:45;4.72;;;0.93;;
21492;SDS011;10908;50.690;4.400;2024-03-02T11:42:12;6.93;;;0.82;;
21492;SDS011;10908;50.690;4.400;2024-03-02T11:44:42;6.13;;;1.17;;
21492;SDS011;10908;50.690;4.400;2024-03-02T11:47:11;6.05;;;0.85;;
21492;SDS011;10908;50.690;4.400;2024-03-02T11:49:44;11.52;;;1.15;;
21492;SDS011;10908;50.690;4.400;2024-03-02T11:52:19;6.75;;;0.80;;
21492;SDS011;10908;50.690;4.400;2024-03-02T11:54:47;5.25;;;0.80;;
21492;SDS011;10908;50.690;4.400;2024-03-02T11:57:19;8.27;;;1.10;;
21492;SDS011;10908;50.690;4.400;2024-03-02T11:59:48;5.72;;;0.75;;
21492;SDS011;10908;50.690;4.400;2024-03-02T12:02:17;5.30;;;0.68;;
21492;SDS011;10908;50.690;4.400;2024-03-02T12:04:45;6.15;;;0.95;;
21492;SDS011;10908;50.690;4.400;2024-03-02T12:07:13;5.68;;;0.80;;
21492;SDS011;10908;50.690;4.400;2024-03-02T12:09:44;6.63;;;0.70;;
21492;SDS011;10908;50.690;4.400;2024-03-02T12:12:10;7.47;;;1.20;;
21492;SDS011;10908;50.690;4.400;2024-03-02T12:14:37;7.90;;;0.90;;
21492;SDS011;10908;50.690;4.400;2024-03-02T12:17:04;6.20;;;1.02;;
21492;SDS011;10908;50.690;4.400;2024-03-02T12:19:31;7.55;;;1.30;;
21492;SDS011;10908;50.690;4.400;2024-03-02T12:21:58;6.97;;;1.08;;
21492;SDS011;10908;50.690;4.400;2024-03-02T12:24:26;4.97;;;0.73;;
21492;SDS011;10908;50.690;4.400;2024-03-02T12:26:53;6.60;;;0.82;;
21492;SDS011;10908;50.690;4.400;2024-03-02T12:29:19;5.70;;;0.77;;
21492;SDS011;10908;50.690;4.400;2024-03-02T12:31:49;3.28;;;0.50;;
21492;SDS011;10908;50.690;4.400;2024-03-02T12:34:18;4.95;;;0.57;;
21492;SDS011;10908;50.690;4.400;2024-03-02T12:36:45;4.75;;;0.60;;
21492;SDS011;10908;50.690;4.400;2024-03-02T12:39:14;4.30;;;0.60;;
21492;SDS011;10908;50.690;4.400;2024-03-02T12:41:43;3.63;;;0.57;;
21492;SDS011;10908;50.690;4.400;2024-03-02T12:44:08;3.30;;;0.40;;
21492;SDS011;10908;50.690;4.400;2024-03-02T12:46:34;3.40;;;0.45;;
21492;SDS011;10908;50.690;4.400;2024-03-02T12:49:07;5.40;;;0.50;;
21492;SDS011;10908;50.690;4.400;2024-03-02T12:51:35;5.18;;;0.50;;
21492;SDS011;10908;50.690;4.400;2024-03-02T12:54:01;6.40;;;0.50;;
21492;SDS011;10908;50.690;4.400;2024-03-02T12:56:28;7.03;;;0.70;;
21492;SDS011;10908;50.690;4.400;2024-03-02T12:58:55;4.95;;;0.50;;
21492;SDS011;10908;50.690;4.400;2024-03-02T13:01:20;5.60;;;0.45;;
21492;SDS011;10908;50.690;4.400;2024-03-02T13:03:49;12.02;;;0.88;;
21492;SDS011;10908;50.690;4.400;2024-03-02T13:06:20;3.63;;;0.50;;
21492;SDS011;10908;50.690;4.400;2024-03-02T13:08:46;6.07;;;0.80;;
21492;SDS011;10908;50.690;4.400;2024-03-02T13:11:12;4.75;;;0.50;;
21492;SDS011;10908;50.690;4.400;2024-03-02T13:13:39;4.22;;;0.40;;
21492;SDS011;10908;50.690;4.400;2024-03-02T13:16:14;3.63;;;0.52;;
21492;SDS011;10908;50.690;4.400;2024-03-02T13:18:41;4.45;;;0.70;;
21492;SDS011;10908;50.690;4.400;2024-03-02T13:21:07;4.78;;;0.73;;
21492;SDS011;10908;50.690;4.400;2024-03-02T13:23:33;5.03;;;0.70;;
21492;SDS011;10908;50.690;4.400;2024-03-02T13:25:59;3.03;;;0.40;;
21492;SDS011;10908;50.690;4.400;2024-03-02T13:28:25;5.10;;;0.68;;
21492;SDS011;10908;50.690;4.400;2024-03-02T13:30:51;4.78;;;0.57;;
21492;SDS011;10908;50.690;4.400;2024-03-02T13:33:16;5.78;;;0.80;;
21492;SDS011;10908;50.690;4.400;2024-03-02T13:35:48;5.25;;;0.70;;
21492;SDS011;10908;50.690;4.400;2024-03-02T13:38:15;4.30;;;1.17;;
21492;SDS011;10908;50.690;4.400;2024-03-02T13:40:44;5.55;;;1.30;;
21492;SDS011;10908;50.690;4.400;2024-03-02T13:43:10;10.65;;;1.00;;
21492;SDS011;10908;50.690;4.400;2024-03-02T13:45:37;4.35;;;1.05;;
21492;SDS011;10908;50.690;4.400;2024-03-02T13:48:03;3.30;;;0.60;;
21492;SDS011;10908;50.690;4.400;2024-03-02T13:50:29;2.67;;;0.60;;
21492;SDS011;10908;50.690;4.400;2024-03-02T13:52:55;4.82;;;0.77;;
21492;SDS011;10908;50.690;4.400;2024-03-02T13:55:21;5.78;;;0.75;;
21492;SDS011;10908;50.690;4.400;2024-03-02T13:57:46;4.45;;;0.60;;
21492;SDS011;10908;50.690;4.400;2024-03-02T14:00:13;4.80;;;0.70;;
21492;SDS011;10908;50.690;4.400;2024-03-02T14:02:40;6.25;;;0.88;;
21492;SDS011;10908;50.690;4.400;2024-03-02T14:05:06;3.72;;;1.25;;
21492;SDS011;10908;50.690;4.400;2024-03-02T14:07:36;4.93;;;1.00;;
21492;SDS011;10908;50.690;4.400;2024-03-02T14:10:03;4.15;;;0.73;;
21492;SDS011;10908;50.690;4.400;2024-03-02T14:12:29;3.53;;;0.73;;
21492;SDS011;10908;50.690;4.400;2024-03-02T14:14:55;4.90;;;0.70;;
21492;SDS011;10908;50.690;4.400;2024-03-02T14:17:23;2.85;;;0.43;;
21492;SDS011;10908;50.690;4.400;2024-03-02T14:19:49;3.83;;;0.57;;
21492;SDS011;10908;50.690;4.400;2024-03-02T14:22:15;4.70;;;0.77;;
21492;SDS011;10908;50.690;4.400;2024-03-02T14:24:42;3.75;;;0.68;;
21492;SDS011;10908;50.690;4.400;2024-03-02T14:27:08;3.00;;;0.50;;
21492;SDS011;10908;50.690;4.400;2024-03-02T14:29:34;3.05;;;0.55;;
21492;SDS011;10908;50.690;4.400;2024-03-02T14:32:02;3.42;;;0.60;;
21492;SDS011;10908;50.690;4.400;2024-03-02T14:34:28;4.30;;;0.65;;
21492;SDS011;10908;50.690;4.400;2024-03-02T14:36:54;4.30;;;0.50;;
21492;SDS011;10908;50.690;4.400;2024-03-02T14:39:20;3.85;;;0.50;;
21492;SDS011;10908;50.690;4.400;2024-03-02T14:41:46;4.43;;;1.00;;
21492;SDS011;10908;50.690;4.400;2024-03-02T14:44:12;2.85;;;0.60;;
21492;SDS011;10908;50.690;4.400;2024-03-02T14:46:37;3.95;;;0.70;;
21492;SDS011;10908;50.690;4.400;2024-03-02T14:49:03;2.78;;;0.60;;
21492;SDS011;10908;50.690;4.400;2024-03-02T14:51:29;4.25;;;0.60;;
21492;SDS011;10908;50.690;4.400;2024-03-02T14:53:55;3.03;;;0.50;;
21492;SDS011;10908;50.690;4.400;2024-03-02T14:56:21;5.13;;;0.95;;